sensor_id;sensor_type;location;lat;lon;timestamp;temperature;humidity
74359;DHT22;62792;46.236;6.040;2022-10-31T00:02:54;23.40;65.70
74359;DHT22;62792;46.236;6.040;2022-10-31T00:07:57;23.40;65.70
74359;DHT22;62792;46.236;6.040;2022-10-31T00:13:00;23.40;65.90
74359;DHT22;62792;46.236;6.040;2022-10-31T00:18:04;23.40;65.90
74359;DHT22;62792;46.236;6.040;2022-10-31T00:23:08;23.40;65.90
74359;DHT22;62792;46.236;6.040;2022-10-31T00:28:11;23.40;65.70
74359;DHT22;62792;46.236;6.040;2022-10-31T00:33:15;23.40;65.70
74359;DHT22;62792;46.236;6.040;2022-10-31T00:38:18;23.50;65.70
74359;DHT22;62792;46.236;6.040;2022-10-31T00:43:21;23.40;65.80
74359;DHT22;62792;46.236;6.040;2022-10-31T00:48:24;23.40;65.70
74359;DHT22;62792;46.236;6.040;2022-10-31T00:53:27;23.40;65.50
74359;DHT22;62792;46.236;6.040;2022-10-31T00:58:30;23.40;65.70
74359;DHT22;62792;46.236;6.040;2022-10-31T01:03:34;23.40;65.60
74359;DHT22;62792;46.236;6.040;2022-10-31T01:08:39;23.40;65.60
74359;DHT22;62792;46.236;6.040;2022-10-31T01:13:43;23.30;65.60
74359;DHT22;62792;46.236;6.040;2022-10-31T01:18:47;23.40;65.40
74359;DHT22;62792;46.236;6.040;2022-10-31T01:23:50;23.40;65.70
74359;DHT22;62792;46.236;6.040;2022-10-31T01:28:53;23.40;65.70
74359;DHT22;62792;46.236;6.040;2022-10-31T01:33:58;23.40;65.50
74359;DHT22;62792;46.236;6.040;2022-10-31T01:39:02;23.40;65.50
74359;DHT22;62792;46.236;6.040;2022-10-31T01:49:24;23.40;65.40
74359;DHT22;62792;46.236;6.040;2022-10-31T01:54:29;23.40;65.50
74359;DHT22;62792;46.236;6.040;2022-10-31T01:59:35;23.40;65.30
74359;DHT22;62792;46.236;6.040;2022-10-31T02:04:42;23.40;65.50
74359;DHT22;62792;46.236;6.040;2022-10-31T02:09:45;23.30;65.50
74359;DHT22;62792;46.236;6.040;2022-10-31T02:14:48;23.30;65.60
74359;DHT22;62792;46.236;6.040;2022-10-31T02:19:54;23.30;65.40
74359;DHT22;62792;46.236;6.040;2022-10-31T02:25:02;23.40;65.30
74359;DHT22;62792;46.236;6.040;2022-10-31T02:30:11;23.40;65.50
74359;DHT22;62792;46.236;6.040;2022-10-31T02:35:23;23.30;65.40
74359;DHT22;62792;46.236;6.040;2022-10-31T02:40:29;23.30;65.50
74359;DHT22;62792;46.236;6.040;2022-10-31T02:45:34;23.30;65.30
74359;DHT22;62792;46.236;6.040;2022-10-31T02:50:41;23.30;65.60
74359;DHT22;62792;46.236;6.040;2022-10-31T02:55:47;23.30;65.40
74359;DHT22;62792;46.236;6.040;2022-10-31T03:00:56;23.30;65.40
74359;DHT22;62792;46.236;6.040;2022-10-31T03:06:05;23.30;65.30
74359;DHT22;62792;46.236;6.040;2022-10-31T03:11:11;23.30;65.50
74359;DHT22;62792;46.236;6.040;2022-10-31T03:16:14;23.30;65.20
74359;DHT22;62792;46.236;6.040;2022-10-31T03:21:19;23.30;65.30
74359;DHT22;62792;46.236;6.040;2022-10-31T03:26:22;23.30;65.40
74359;DHT22;62792;46.236;6.040;2022-10-31T03:31:27;23.30;65.30
74359;DHT22;62792;46.236;6.040;2022-10-31T03:36:33;23.30;65.30
74359;DHT22;62792;46.236;6.040;2022-10-31T03:41:37;23.30;65.30
74359;DHT22;62792;46.236;6.040;2022-10-31T03:46:41;23.20;65.30
74359;DHT22;62792;46.236;6.040;2022-10-31T03:51:46;23.30;65.30
74359;DHT22;62792;46.236;6.040;2022-10-31T03:56:52;23.40;65.20
74359;DHT22;62792;46.236;6.040;2022-10-31T04:01:56;23.30;65.20
74359;DHT22;62792;46.236;6.040;2022-10-31T04:07:01;23.30;65.10
74359;DHT22;62792;46.236;6.040;2022-10-31T04:12:05;23.30;65.20
74359;DHT22;62792;46.236;6.040;2022-10-31T04:17:10;23.30;65.20
74359;DHT22;62792;46.236;6.040;2022-10-31T04:22:16;23.30;64.90
74359;DHT22;62792;46.236;6.040;2022-10-31T04:27:18;23.30;65.00
74359;DHT22;62792;46.236;6.040;2022-10-31T04:32:21;23.30;65.10
74359;DHT22;62792;46.236;6.040;2022-10-31T04:37:25;23.30;65.00
74359;DHT22;62792;46.236;6.040;2022-10-31T04:42:28;23.30;65.10
74359;DHT22;62792;46.236;6.040;2022-10-31T04:47:31;23.20;65.10
74359;DHT22;62792;46.236;6.040;2022-10-31T04:52:39;23.30;64.90
74359;DHT22;62792;46.236;6.040;2022-10-31T04:57:42;23.20;64.90
74359;DHT22;62792;46.236;6.040;2022-10-31T05:02:45;23.30;64.90
74359;DHT22;62792;46.236;6.040;2022-10-31T05:07:49;23.20;65.00
74359;DHT22;62792;46.236;6.040;2022-10-31T05:12:52;23.30;64.70
74359;DHT22;62792;46.236;6.040;2022-10-31T05:17:55;23.20;64.90
74359;DHT22;62792;46.236;6.040;2022-10-31T05:23:00;23.20;64.80
74359;DHT22;62792;46.236;6.040;2022-10-31T05:28:03;23.20;64.80
74359;DHT22;62792;46.236;6.040;2022-10-31T05:33:05;23.20;64.80
74359;DHT22;62792;46.236;6.040;2022-10-31T05:38:09;23.20;64.60
74359;DHT22;62792;46.236;6.040;2022-10-31T05:43:12;23.20;64.70
74359;DHT22;62792;46.236;6.040;2022-10-31T05:48:15;23.20;64.80
74359;DHT22;62792;46.236;6.040;2022-10-31T05:53:19;23.20;64.60
74359;DHT22;62792;46.236;6.040;2022-10-31T05:58:23;23.10;64.60
74359;DHT22;62792;46.236;6.040;2022-10-31T06:03:25;23.20;64.80
74359;DHT22;62792;46.236;6.040;2022-10-31T06:08:30;23.20;64.70
74359;DHT22;62792;46.236;6.040;2022-10-31T06:13:32;23.10;64.80
74359;DHT22;62792;46.236;6.040;2022-10-31T06:18:35;23.20;64.70
74359;DHT22;62792;46.236;6.040;2022-10-31T06:23:39;23.20;64.70
74359;DHT22;62792;46.236;6.040;2022-10-31T06:28:41;23.20;64.70
74359;DHT22;62792;46.236;6.040;2022-10-31T06:33:44;23.10;64.60
74359;DHT22;62792;46.236;6.040;2022-10-31T06:38:48;23.20;64.40
74359;DHT22;62792;46.236;6.040;2022-10-31T06:43:51;23.20;64.50
74359;DHT22;62792;46.236;6.040;2022-10-31T06:48:53;23.20;64.40
74359;DHT22;62792;46.236;6.040;2022-10-31T06:53:57;23.20;64.50
74359;DHT22;62792;46.236;6.040;2022-10-31T06:59:00;23.20;64.50
74359;DHT22;62792;46.236;6.040;2022-10-31T07:04:03;23.20;64.50
74359;DHT22;62792;46.236;6.040;2022-10-31T07:09:07;23.20;64.40
74359;DHT22;62792;46.236;6.040;2022-10-31T07:14:09;23.20;64.60
74359;DHT22;62792;46.236;6.040;2022-10-31T07:19:12;23.30;64.30
74359;DHT22;62792;46.236;6.040;2022-10-31T07:24:16;23.10;64.30
74359;DHT22;62792;46.236;6.040;2022-10-31T07:29:19;23.20;64.50
74359;DHT22;62792;46.236;6.040;2022-10-31T07:34:21;23.20;64.40
74359;DHT22;62792;46.236;6.040;2022-10-31T07:39:25;23.20;64.50
74359;DHT22;62792;46.236;6.040;2022-10-31T07:44:28;22.90;64.20
74359;DHT22;62792;46.236;6.040;2022-10-31T07:49:30;22.50;64.80
74359;DHT22;62792;46.236;6.040;2022-10-31T07:54:34;22.60;64.10
74359;DHT22;62792;46.236;6.040;2022-10-31T07:59:37;22.70;64.10
74359;DHT22;62792;46.236;6.040;2022-10-31T08:04:39;23.10;63.60
74359;DHT22;62792;46.236;6.040;2022-10-31T08:09:44;23.20;63.00
74359;DHT22;62792;46.236;6.040;2022-10-31T08:14:46;23.20;63.00
74359;DHT22;62792;46.236;6.040;2022-10-31T08:19:49;23.30;62.60
74359;DHT22;62792;46.236;6.040;2022-10-31T08:24:53;23.30;62.30
74359;DHT22;62792;46.236;6.040;2022-10-31T08:29:56;23.40;62.70
74359;DHT22;62792;46.236;6.040;2022-10-31T08:34:59;23.40;62.50
74359;DHT22;62792;46.236;6.040;2022-10-31T08:40:04;23.50;62.40
74359;DHT22;62792;46.236;6.040;2022-10-31T08:45:08;23.50;62.80
74359;DHT22;62792;46.236;6.040;2022-10-31T08:50:10;23.60;63.10
74359;DHT22;62792;46.236;6.040;2022-10-31T08:55:15;23.70;61.30
74359;DHT22;62792;46.236;6.040;2022-10-31T09:00:17;23.60;63.00
74359;DHT22;62792;46.236;6.040;2022-10-31T09:05:20;23.50;63.20
74359;DHT22;62792;46.236;6.040;2022-10-31T09:10:24;23.70;61.80
74359;DHT22;62792;46.236;6.040;2022-10-31T09:15:27;23.50;63.00
74359;DHT22;62792;46.236;6.040;2022-10-31T09:20:30;23.30;63.40
74359;DHT22;62792;46.236;6.040;2022-10-31T09:25:35;23.30;63.50
74359;DHT22;62792;46.236;6.040;2022-10-31T09:30:37;23.20;63.70
74359;DHT22;62792;46.236;6.040;2022-10-31T09:35:40;23.30;63.80
74359;DHT22;62792;46.236;6.040;2022-10-31T09:40:46;23.20;64.10
74359;DHT22;62792;46.236;6.040;2022-10-31T09:45:56;23.20;64.00
74359;DHT22;62792;46.236;6.040;2022-10-31T09:51:04;23.30;65.10
74359;DHT22;62792;46.236;6.040;2022-10-31T09:56:10;23.20;65.90
74359;DHT22;62792;46.236;6.040;2022-10-31T10:01:27;23.40;65.60
74359;DHT22;62792;46.236;6.040;2022-10-31T10:06:32;23.60;64.90
74359;DHT22;62792;46.236;6.040;2022-10-31T10:11:40;23.60;65.00
74359;DHT22;62792;46.236;6.040;2022-10-31T10:16:55;23.70;63.30
74359;DHT22;62792;46.236;6.040;2022-10-31T10:22:01;23.80;63.40
74359;DHT22;62792;46.236;6.040;2022-10-31T10:27:12;23.70;63.40
74359;DHT22;62792;46.236;6.040;2022-10-31T10:32:24;23.80;63.20
74359;DHT22;62792;46.236;6.040;2022-10-31T10:37:28;23.80;63.40
74359;DHT22;62792;46.236;6.040;2022-10-31T10:42:34;23.70;63.50
74359;DHT22;62792;46.236;6.040;2022-10-31T10:47:56;23.50;64.80
74359;DHT22;62792;46.236;6.040;2022-10-31T10:53:03;23.50;65.00
74359;DHT22;62792;46.236;6.040;2022-10-31T10:58:10;23.50;65.40
74359;DHT22;62792;46.236;6.040;2022-10-31T11:03:13;23.30;65.60
74359;DHT22;62792;46.236;6.040;2022-10-31T11:08:23;23.30;65.60
74359;DHT22;62792;46.236;6.040;2022-10-31T11:13:29;23.40;65.60
74359;DHT22;62792;46.236;6.040;2022-10-31T11:18:32;23.40;65.60
74359;DHT22;62792;46.236;6.040;2022-10-31T11:23:36;23.30;65.70
74359;DHT22;62792;46.236;6.040;2022-10-31T11:28:40;23.50;65.20
74359;DHT22;62792;46.236;6.040;2022-10-31T11:33:45;23.60;64.00
74359;DHT22;62792;46.236;6.040;2022-10-31T11:38:48;23.70;63.70
74359;DHT22;62792;46.236;6.040;2022-10-31T11:43:54;23.80;63.60
74359;DHT22;62792;46.236;6.040;2022-10-31T11:48:57;23.70;63.80
74359;DHT22;62792;46.236;6.040;2022-10-31T11:54:00;23.80;63.70
74359;DHT22;62792;46.236;6.040;2022-10-31T11:59:14;23.80;63.60
74359;DHT22;62792;46.236;6.040;2022-10-31T12:04:18;23.80;63.90
74359;DHT22;62792;46.236;6.040;2022-10-31T12:09:21;23.80;63.60
74359;DHT22;62792;46.236;6.040;2022-10-31T12:14:28;23.80;63.90
74359;DHT22;62792;46.236;6.040;2022-10-31T12:19:36;23.80;64.90
74359;DHT22;62792;46.236;6.040;2022-10-31T12:24:45;23.80;64.30
74359;DHT22;62792;46.236;6.040;2022-10-31T12:29:56;23.90;64.00
74359;DHT22;62792;46.236;6.040;2022-10-31T12:35:03;23.90;63.80
74359;DHT22;62792;46.236;6.040;2022-10-31T12:40:21;24.00;64.10
74359;DHT22;62792;46.236;6.040;2022-10-31T12:45:31;24.10;64.20
74359;DHT22;62792;46.236;6.040;2022-10-31T12:50:41;24.10;64.40
74359;DHT22;62792;46.236;6.040;2022-10-31T12:55:53;24.10;63.90
74359;DHT22;62792;46.236;6.040;2022-10-31T13:01:02;24.20;63.90
74359;DHT22;62792;46.236;6.040;2022-10-31T13:06:11;24.30;63.70
74359;DHT22;62792;46.236;6.040;2022-10-31T13:11:16;24.40;63.70
74359;DHT22;62792;46.236;6.040;2022-10-31T13:16:22;24.50;63.80
74359;DHT22;62792;46.236;6.040;2022-10-31T13:21:30;24.40;64.20
74359;DHT22;62792;46.236;6.040;2022-10-31T13:26:35;24.50;63.80
74359;DHT22;62792;46.236;6.040;2022-10-31T13:31:41;24.50;64.00
74359;DHT22;62792;46.236;6.040;2022-10-31T13:36:45;24.70;63.60
74359;DHT22;62792;46.236;6.040;2022-10-31T13:41:51;24.60;63.80
74359;DHT22;62792;46.236;6.040;2022-10-31T13:46:56;24.90;63.70
74359;DHT22;62792;46.236;6.040;2022-10-31T13:52:05;24.60;63.50
74359;DHT22;62792;46.236;6.040;2022-10-31T13:57:17;24.70;63.60
74359;DHT22;62792;46.236;6.040;2022-10-31T14:02:24;24.70;63.50
74359;DHT22;62792;46.236;6.040;2022-10-31T14:07:28;24.90;63.30
74359;DHT22;62792;46.236;6.040;2022-10-31T14:12:31;24.90;63.10
74359;DHT22;62792;46.236;6.040;2022-10-31T14:17:39;25.00;63.70
74359;DHT22;62792;46.236;6.040;2022-10-31T14:22:47;25.00;63.10
74359;DHT22;62792;46.236;6.040;2022-10-31T14:27:52;25.00;62.90
74359;DHT22;62792;46.236;6.040;2022-10-31T14:32:57;25.10;63.10
74359;DHT22;62792;46.236;6.040;2022-10-31T14:38:12;25.10;62.90
74359;DHT22;62792;46.236;6.040;2022-10-31T14:43:35;25.10;62.80
74359;DHT22;62792;46.236;6.040;2022-10-31T14:54:03;25.10;63.00
74359;DHT22;62792;46.236;6.040;2022-10-31T14:59:18;25.10;63.80
74359;DHT22;62792;46.236;6.040;2022-10-31T15:04:24;25.00;63.30
74359;DHT22;62792;46.236;6.040;2022-10-31T15:09:43;24.70;63.60
74359;DHT22;62792;46.236;6.040;2022-10-31T15:14:47;24.70;63.90
74359;DHT22;62792;46.236;6.040;2022-10-31T15:19:49;24.90;63.10
74359;DHT22;62792;46.236;6.040;2022-10-31T15:24:54;25.00;62.90
74359;DHT22;62792;46.236;6.040;2022-10-31T15:29:57;25.10;63.00
74359;DHT22;62792;46.236;6.040;2022-10-31T15:35:00;25.00;63.50
74359;DHT22;62792;46.236;6.040;2022-10-31T15:40:11;25.10;63.50
74359;DHT22;62792;46.236;6.040;2022-10-31T15:45:17;25.30;63.00
74359;DHT22;62792;46.236;6.040;2022-10-31T15:50:21;25.20;63.30
74359;DHT22;62792;46.236;6.040;2022-10-31T15:55:26;24.90;63.80
74359;DHT22;62792;46.236;6.040;2022-10-31T16:00:31;25.20;63.40
74359;DHT22;62792;46.236;6.040;2022-10-31T16:05:35;25.20;63.30
74359;DHT22;62792;46.236;6.040;2022-10-31T16:10:39;25.00;63.20
74359;DHT22;62792;46.236;6.040;2022-10-31T16:15:46;24.70;63.70
74359;DHT22;62792;46.236;6.040;2022-10-31T16:21:04;24.60;64.00
74359;DHT22;62792;46.236;6.040;2022-10-31T16:26:08;24.50;64.20
74359;DHT22;62792;46.236;6.040;2022-10-31T16:31:12;24.80;64.10
74359;DHT22;62792;46.236;6.040;2022-10-31T16:41:43;24.90;63.30
74359;DHT22;62792;46.236;6.040;2022-10-31T16:46:46;24.80;63.60
74359;DHT22;62792;46.236;6.040;2022-10-31T16:51:49;24.80;63.30
74359;DHT22;62792;46.236;6.040;2022-10-31T16:56:53;24.70;63.60
74359;DHT22;62792;46.236;6.040;2022-10-31T17:01:56;24.40;63.70
74359;DHT22;62792;46.236;6.040;2022-10-31T17:07:00;24.30;64.00
74359;DHT22;62792;46.236;6.040;2022-10-31T17:12:04;24.30;64.20
74359;DHT22;62792;46.236;6.040;2022-10-31T17:17:07;22.30;70.30
74359;DHT22;62792;46.236;6.040;2022-10-31T17:22:10;22.50;70.60
74359;DHT22;62792;46.236;6.040;2022-10-31T17:27:14;23.40;68.10
74359;DHT22;62792;46.236;6.040;2022-10-31T17:32:17;23.80;65.90
74359;DHT22;62792;46.236;6.040;2022-10-31T17:37:20;24.00;65.40
74359;DHT22;62792;46.236;6.040;2022-10-31T17:42:24;24.10;65.40
74359;DHT22;62792;46.236;6.040;2022-10-31T17:47:27;24.10;65.20
74359;DHT22;62792;46.236;6.040;2022-10-31T17:52:29;24.00;65.30
74359;DHT22;62792;46.236;6.040;2022-10-31T17:57:34;24.10;65.10
74359;DHT22;62792;46.236;6.040;2022-10-31T18:02:37;24.10;65.20
74359;DHT22;62792;46.236;6.040;2022-10-31T18:07:40;24.10;65.20
74359;DHT22;62792;46.236;6.040;2022-10-31T18:12:44;24.10;65.20
74359;DHT22;62792;46.236;6.040;2022-10-31T18:17:49;24.00;65.10
74359;DHT22;62792;46.236;6.040;2022-10-31T18:22:52;24.10;65.30
74359;DHT22;62792;46.236;6.040;2022-10-31T18:27:56;24.10;65.10
74359;DHT22;62792;46.236;6.040;2022-10-31T18:32:59;24.00;65.00
74359;DHT22;62792;46.236;6.040;2022-10-31T18:38:02;24.00;65.20
74359;DHT22;62792;46.236;6.040;2022-10-31T18:43:08;24.10;65.30
74359;DHT22;62792;46.236;6.040;2022-10-31T18:48:11;24.10;65.00
74359;DHT22;62792;46.236;6.040;2022-10-31T18:53:15;24.10;65.20
74359;DHT22;62792;46.236;6.040;2022-10-31T18:58:18;24.10;65.10
74359;DHT22;62792;46.236;6.040;2022-10-31T19:03:21;24.10;65.20
74359;DHT22;62792;46.236;6.040;2022-10-31T19:08:26;24.10;65.10
74359;DHT22;62792;46.236;6.040;2022-10-31T19:13:36;24.10;65.30
74359;DHT22;62792;46.236;6.040;2022-10-31T19:18:39;24.10;65.20
74359;DHT22;62792;46.236;6.040;2022-10-31T19:23:42;24.10;65.10
74359;DHT22;62792;46.236;6.040;2022-10-31T19:28:47;24.00;65.20
74359;DHT22;62792;46.236;6.040;2022-10-31T19:33:50;24.00;65.30
74359;DHT22;62792;46.236;6.040;2022-10-31T19:38:52;24.10;65.20
74359;DHT22;62792;46.236;6.040;2022-10-31T19:43:57;24.00;65.20
74359;DHT22;62792;46.236;6.040;2022-10-31T19:49:00;24.00;65.10
74359;DHT22;62792;46.236;6.040;2022-10-31T19:54:03;24.00;65.40
74359;DHT22;62792;46.236;6.040;2022-10-31T19:59:07;24.00;65.20
74359;DHT22;62792;46.236;6.040;2022-10-31T20:04:10;24.00;65.20
74359;DHT22;62792;46.236;6.040;2022-10-31T20:09:13;23.90;65.30
74359;DHT22;62792;46.236;6.040;2022-10-31T20:14:30;24.00;65.20
74359;DHT22;62792;46.236;6.040;2022-10-31T20:19:33;24.00;65.10
74359;DHT22;62792;46.236;6.040;2022-10-31T20:24:36;24.10;65.40
74359;DHT22;62792;46.236;6.040;2022-10-31T20:29:40;24.10;65.00
74359;DHT22;62792;46.236;6.040;2022-10-31T20:34:42;24.10;65.00
74359;DHT22;62792;46.236;6.040;2022-10-31T20:39:45;24.10;65.00
74359;DHT22;62792;46.236;6.040;2022-10-31T20:44:52;24.00;65.10
74359;DHT22;62792;46.236;6.040;2022-10-31T20:49:54;24.00;65.00
74359;DHT22;62792;46.236;6.040;2022-10-31T20:54:57;24.00;65.10
74359;DHT22;62792;46.236;6.040;2022-10-31T21:00:01;24.00;65.00
74359;DHT22;62792;46.236;6.040;2022-10-31T21:05:05;24.00;65.00
74359;DHT22;62792;46.236;6.040;2022-10-31T21:10:09;24.00;65.10
74359;DHT22;62792;46.236;6.040;2022-10-31T21:15:17;24.00;65.00
74359;DHT22;62792;46.236;6.040;2022-10-31T21:20:19;24.00;65.20
74359;DHT22;62792;46.236;6.040;2022-10-31T21:25:22;24.00;65.10
74359;DHT22;62792;46.236;6.040;2022-10-31T21:30:27;24.00;65.10
74359;DHT22;62792;46.236;6.040;2022-10-31T21:35:30;24.00;65.00
74359;DHT22;62792;46.236;6.040;2022-10-31T21:40:32;24.00;64.80
74359;DHT22;62792;46.236;6.040;2022-10-31T21:45:36;24.00;65.30
74359;DHT22;62792;46.236;6.040;2022-10-31T21:50:39;24.00;65.00
74359;DHT22;62792;46.236;6.040;2022-10-31T21:55:41;24.00;65.00
74359;DHT22;62792;46.236;6.040;2022-10-31T22:00:45;23.90;65.20
74359;DHT22;62792;46.236;6.040;2022-10-31T22:05:48;24.00;65.00
74359;DHT22;62792;46.236;6.040;2022-10-31T22:10:51;24.10;65.10
74359;DHT22;62792;46.236;6.040;2022-10-31T22:15:55;24.00;64.90
74359;DHT22;62792;46.236;6.040;2022-10-31T22:21:00;24.00;64.90
74359;DHT22;62792;46.236;6.040;2022-10-31T22:26:04;24.00;64.90
74359;DHT22;62792;46.236;6.040;2022-10-31T22:31:09;24.00;64.70
74359;DHT22;62792;46.236;6.040;2022-10-31T22:36:13;24.00;65.00
74359;DHT22;62792;46.236;6.040;2022-10-31T22:41:17;24.00;64.70
74359;DHT22;62792;46.236;6.040;2022-10-31T22:46:22;23.90;64.90
74359;DHT22;62792;46.236;6.040;2022-10-31T22:51:26;23.90;64.90
74359;DHT22;62792;46.236;6.040;2022-10-31T22:56:29;24.00;64.70
74359;DHT22;62792;46.236;6.040;2022-10-31T23:01:34;24.00;65.10
74359;DHT22;62792;46.236;6.040;2022-10-31T23:06:41;24.00;65.00
74359;DHT22;62792;46.236;6.040;2022-10-31T23:11:45;24.00;64.90
74359;DHT22;62792;46.236;6.040;2022-10-31T23:16:50;24.00;65.00
74359;DHT22;62792;46.236;6.040;2022-10-31T23:21:54;24.00;64.90
74359;DHT22;62792;46.236;6.040;2022-10-31T23:26:58;23.90;65.00
74359;DHT22;62792;46.236;6.040;2022-10-31T23:32:12;23.90;64.80
74359;DHT22;62792;46.236;6.040;2022-10-31T23:37:15;24.00;64.70
74359;DHT22;62792;46.236;6.040;2022-10-31T23:42:18;24.00;64.80
74359;DHT22;62792;46.236;6.040;2022-10-31T23:47:22;24.00;64.70
74359;DHT22;62792;46.236;6.040;2022-10-31T23:52:25;24.00;64.70
74359;DHT22;62792;46.236;6.040;2022-10-31T23:57:27;24.00;64.90
